createdAt,value
2022-12-26T00:01:42.842Z,15.54
2022-12-26T00:04:51.760Z,15.39
2022-12-26T00:07:00.387Z,15.48
2022-12-26T00:09:27.641Z,15.53
2022-12-26T00:11:54.910Z,15.50
2022-12-26T00:14:22.202Z,15.31
2022-12-26T00:16:49.663Z,15.36
2022-12-26T00:19:16.940Z,15.03
2022-12-26T00:21:44.387Z,15.19
2022-12-26T00:24:12.157Z,15.29
2022-12-26T00:26:39.693Z,14.89
2022-12-26T00:29:07.011Z,15.16
2022-12-26T00:31:35.897Z,14.97
2022-12-26T00:34:03.458Z,14.98
2022-12-26T00:36:32.892Z,15.04
2022-12-26T00:39:01.597Z,15.35
2022-12-26T00:41:30.506Z,15.31
2022-12-26T00:43:58.039Z,15.23
2022-12-26T00:46:26.477Z,15.11
2022-12-26T00:48:53.997Z,15.34
2022-12-26T00:51:21.841Z,15.28
2022-12-26T00:53:49.325Z,14.96
2022-12-26T00:56:16.896Z,15.17
2022-12-26T00:58:44.389Z,15.12
2022-12-26T01:01:17.486Z,15.15
2022-12-26T01:03:46.023Z,15.06
2022-12-26T01:06:13.472Z,15.19
2022-12-26T01:08:40.969Z,15.06
2022-12-26T01:11:10.925Z,14.89
2022-12-26T01:13:38.685Z,15.01
2022-12-26T01:16:06.999Z,15.03
2022-12-26T01:18:35.173Z,14.99
2022-12-26T01:21:05.900Z,14.85
2022-12-26T01:23:33.453Z,14.87
2022-12-26T01:26:18.264Z,15.04
2022-12-26T01:28:49.127Z,15.06
2022-12-26T01:31:17.078Z,15.02
2022-12-26T01:33:44.446Z,15.04
2022-12-26T01:36:12.006Z,15.05
2022-12-26T01:38:39.274Z,15.06
2022-12-26T01:41:21.908Z,15.05
2022-12-26T01:43:52.291Z,15.26
2022-12-26T01:46:41.846Z,15.37
2022-12-26T01:49:37.743Z,15.47
2022-12-26T01:52:08.902Z,15.29
2022-12-26T01:54:42.622Z,15.17
2022-12-26T01:57:20.615Z,15.14
2022-12-26T01:59:48.369Z,15.15
2022-12-26T02:02:17.084Z,15.00
2022-12-26T02:05:06.181Z,15.09
2022-12-26T02:07:41.040Z,15.02
2022-12-26T02:10:13.474Z,15.05
2022-12-26T02:12:41.232Z,15.16
2022-12-26T02:15:12.887Z,15.21
2022-12-26T02:17:41.708Z,15.15
2022-12-26T02:20:29.551Z,15.11
2022-12-26T02:23:34.519Z,15.28
2022-12-26T02:26:17.969Z,15.30
2022-12-26T02:29:12.796Z,15.17
2022-12-26T02:31:51.711Z,15.20
2022-12-26T02:34:50.152Z,15.04
2022-12-26T02:37:56.091Z,15.00
2022-12-26T02:40:29.122Z,15.08
2022-12-26T02:43:06.744Z,15.03
2022-12-26T02:45:59.669Z,15.23
2022-12-26T02:48:39.146Z,15.05
2022-12-26T02:51:44.073Z,15.03
2022-12-26T02:54:46.710Z,15.01
2022-12-26T02:57:37.604Z,15.04
2022-12-26T03:00:44.132Z,15.06
2022-12-26T03:03:33.658Z,14.99
2022-12-26T03:06:39.111Z,15.11
2022-12-26T03:09:35.722Z,15.24
2022-12-26T03:12:26.617Z,15.16
2022-12-26T03:15:02.833Z,15.12
2022-12-26T03:17:37.002Z,15.17
2022-12-26T03:20:17.114Z,15.02
2022-12-26T03:22:47.462Z,15.11
2022-12-26T03:25:48.724Z,14.97
2022-12-26T03:28:16.817Z,15.07
2022-12-26T03:30:50.309Z,15.05
2022-12-26T03:33:48.813Z,15.19
2022-12-26T03:36:24.279Z,15.03
2022-12-26T03:39:13.079Z,15.22
2022-12-26T03:42:09.162Z,15.16
2022-12-26T03:44:57.692Z,15.07
2022-12-26T03:47:57.546Z,15.12
2022-12-26T03:50:51.847Z,15.18
2022-12-26T03:53:47.417Z,15.01
2022-12-26T03:56:40.584Z,15.03
2022-12-26T03:59:30.158Z,14.81
2022-12-26T04:02:22.169Z,14.92
2022-12-26T04:05:08.800Z,14.91
2022-12-26T04:08:00.182Z,15.11
2022-12-26T04:10:51.983Z,14.99
2022-12-26T04:13:42.387Z,15.06
2022-12-26T04:17:08.786Z,15.01
2022-12-26T04:19:54.670Z,15.10
2022-12-26T04:22:54.978Z,14.78
2022-12-26T04:25:49.352Z,14.93
2022-12-26T04:28:38.414Z,14.92
2022-12-26T04:31:36.614Z,14.98
2022-12-26T04:34:26.437Z,15.04
2022-12-26T04:37:17.426Z,14.91
2022-12-26T04:40:08.041Z,15.10
2022-12-26T04:42:54.525Z,14.94
2022-12-26T04:45:22.389Z,14.87
2022-12-26T04:48:09.599Z,15.02
2022-12-26T04:50:37.043Z,14.99
2022-12-26T04:53:04.289Z,15.12
2022-12-26T04:55:33.004Z,14.91
2022-12-26T04:58:00.415Z,14.90
2022-12-26T05:00:29.080Z,14.85
2022-12-26T05:03:18.965Z,14.83
2022-12-26T05:06:07.724Z,15.08
2022-12-26T05:08:59.261Z,15.02
2022-12-26T05:11:33.746Z,14.84
2022-12-26T05:14:01.781Z,15.01
2022-12-26T05:16:48.212Z,15.03
2022-12-26T05:19:36.216Z,14.90
2022-12-26T05:22:23.339Z,14.67
2022-12-26T05:25:09.821Z,14.77
2022-12-26T05:27:59.061Z,14.77
2022-12-26T05:30:26.557Z,14.82
2022-12-26T05:33:12.382Z,14.77
2022-12-26T05:35:40.015Z,14.71
2022-12-26T05:38:09.337Z,14.50
2022-12-26T05:40:36.593Z,14.41
2022-12-26T05:43:03.958Z,14.28
2022-12-26T05:45:32.589Z,14.55
2022-12-26T05:48:01.161Z,14.61
2022-12-26T05:50:28.858Z,14.65
2022-12-26T05:52:59.966Z,14.58
2022-12-26T05:55:27.329Z,14.62
2022-12-26T05:57:54.572Z,14.75
2022-12-26T06:00:21.902Z,14.38
2022-12-26T06:02:49.255Z,14.34
2022-12-26T06:05:17.134Z,14.40
2022-12-26T06:07:44.777Z,14.20
2022-12-26T06:10:12.426Z,14.25
2022-12-26T06:12:39.947Z,14.49
2022-12-26T06:15:07.676Z,14.03
2022-12-26T06:17:35.009Z,14.25
2022-12-26T06:20:02.248Z,14.53
2022-12-26T06:22:29.852Z,14.67
2022-12-26T06:24:57.155Z,14.52
2022-12-26T06:27:24.779Z,14.44
2022-12-26T06:29:52.655Z,14.56
2022-12-26T06:32:19.925Z,14.74
2022-12-26T06:34:48.179Z,14.53
2022-12-26T06:37:15.643Z,14.65
2022-12-26T06:39:42.904Z,14.66
2022-12-26T06:42:10.172Z,14.59
2022-12-26T06:44:38.476Z,14.32
2022-12-26T06:47:05.859Z,14.48
2022-12-26T06:49:33.538Z,14.43
2022-12-26T06:52:00.845Z,14.29
2022-12-26T06:54:28.242Z,14.46
2022-12-26T06:56:55.557Z,14.51
2022-12-26T06:59:22.894Z,14.53
2022-12-26T07:01:50.451Z,14.26
2022-12-26T07:04:17.835Z,14.41
2022-12-26T07:06:45.021Z,14.30
2022-12-26T07:09:14.708Z,14.20
2022-12-26T07:11:44.467Z,14.35
2022-12-26T07:14:11.731Z,14.43
2022-12-26T07:16:40.759Z,14.41
2022-12-26T07:19:09.578Z,14.40
2022-12-26T07:21:40.787Z,14.29
2022-12-26T07:24:15.206Z,14.22
2022-12-26T07:26:42.978Z,14.23
2022-12-26T07:29:11.277Z,14.03
2022-12-26T07:31:39.142Z,14.25
2022-12-26T07:34:06.428Z,14.34
2022-12-26T07:36:33.724Z,14.23
2022-12-26T07:39:00.963Z,14.21
2022-12-26T07:41:47.929Z,14.25
2022-12-26T07:44:15.337Z,14.16
2022-12-26T07:46:43.188Z,14.06
2022-12-26T07:49:12.182Z,13.88
2022-12-26T07:51:39.586Z,14.10
2022-12-26T07:54:10.880Z,14.02
2022-12-26T07:56:39.670Z,14.24
2022-12-26T07:59:07.202Z,13.95
2022-12-26T08:01:34.973Z,14.30
2022-12-26T08:04:02.471Z,14.32
2022-12-26T08:06:29.785Z,14.39
2022-12-26T08:08:58.641Z,13.94
2022-12-26T08:11:26.048Z,13.90
2022-12-26T08:13:53.295Z,13.90
2022-12-26T08:16:20.706Z,14.20
2022-12-26T08:18:48.141Z,14.21
2022-12-26T08:21:15.751Z,14.17
2022-12-26T08:23:43.076Z,14.49
2022-12-26T08:26:16.341Z,14.46
2022-12-26T08:28:43.816Z,14.30
2022-12-26T08:31:12.763Z,14.45
2022-12-26T08:33:40.033Z,14.41
2022-12-26T08:36:10.002Z,14.38
2022-12-26T08:38:37.419Z,14.52
2022-12-26T08:41:05.193Z,14.29
2022-12-26T08:44:03.170Z,14.23
2022-12-26T08:46:21.483Z,14.56
2022-12-26T08:48:49.646Z,14.77
2022-12-26T08:51:19.974Z,14.60
2022-12-26T08:53:49.765Z,14.57
2022-12-26T08:56:18.834Z,14.44
2022-12-26T08:58:46.411Z,14.59
2022-12-26T09:01:16.518Z,14.66
2022-12-26T09:03:44.020Z,14.51
2022-12-26T09:06:12.747Z,14.58
2022-12-26T09:08:40.836Z,14.80
2022-12-26T09:11:13.033Z,14.89
2022-12-26T09:13:41.583Z,14.83
2022-12-26T09:16:14.852Z,14.97
2022-12-26T09:18:43.519Z,15.04
2022-12-26T09:21:12.108Z,14.44
2022-12-26T09:23:39.982Z,14.58
2022-12-26T09:26:11.266Z,14.78
2022-12-26T09:28:38.958Z,14.62
2022-12-26T09:31:11.940Z,14.51
2022-12-26T09:33:39.675Z,14.90
2022-12-26T09:36:14.475Z,15.31
2022-12-26T09:38:43.855Z,15.15
2022-12-26T09:41:14.785Z,14.78
2022-12-26T09:43:53.831Z,14.96
2022-12-26T09:46:25.141Z,14.68
2022-12-26T09:48:58.263Z,14.96
2022-12-26T09:51:27.109Z,15.06
2022-12-26T09:53:54.873Z,14.84
2022-12-26T09:59:16.842Z,14.46
2022-12-26T10:01:44.779Z,14.68
2022-12-26T10:04:29.074Z,14.78
2022-12-26T10:07:24.523Z,14.81
2022-12-26T10:10:05.546Z,14.93
2022-12-26T10:12:52.563Z,14.99
2022-12-26T10:15:53.425Z,15.02
2022-12-26T10:18:36.834Z,14.86
2022-12-26T10:21:14.893Z,15.19
2022-12-26T10:23:45.674Z,15.36
2022-12-26T10:26:21.744Z,15.28
2022-12-26T10:28:54.965Z,15.24
2022-12-26T10:31:41.504Z,15.32
2022-12-26T10:34:17.416Z,15.21
2022-12-26T10:36:48.826Z,15.27
2022-12-26T10:39:39.296Z,14.96
2022-12-26T10:42:26.078Z,14.41
2022-12-26T10:44:53.446Z,14.66
2022-12-26T10:47:39.281Z,14.77
2022-12-26T10:50:07.098Z,14.55
2022-12-26T10:52:38.061Z,14.80
2022-12-26T10:55:28.680Z,14.81
2022-12-26T10:57:54.464Z,14.94
2022-12-26T11:00:24.855Z,14.79
2022-12-26T11:03:12.514Z,14.98
2022-12-26T11:08:43.222Z,15.08
2022-12-26T11:11:46.278Z,15.34
2022-12-26T11:14:34.173Z,14.93
2022-12-26T11:17:06.457Z,14.81
2022-12-26T11:19:35.435Z,14.88
2022-12-26T11:22:28.674Z,15.17
2022-12-26T11:25:08.086Z,15.32
2022-12-26T11:27:39.578Z,15.30
2022-12-26T11:30:22.120Z,15.35
2022-12-26T11:33:22.267Z,15.38
2022-12-26T11:36:09.488Z,15.26
2022-12-26T11:38:58.660Z,15.35
2022-12-26T11:41:31.847Z,15.15
2022-12-26T11:44:22.619Z,15.02
2022-12-26T11:46:52.699Z,15.17
2022-12-26T11:49:52.276Z,15.43
2022-12-26T11:52:37.959Z,15.31
2022-12-26T11:55:27.033Z,14.49
2022-12-26T11:58:06.711Z,15.14
2022-12-26T12:00:35.585Z,15.15
2022-12-26T12:03:04.496Z,15.22
2022-12-26T12:05:53.739Z,14.93
2022-12-26T12:08:49.226Z,15.06
2022-12-26T12:11:41.408Z,14.60
2022-12-26T12:14:21.725Z,13.18
2022-12-26T12:16:52.400Z,12.13
2022-12-26T12:19:41.663Z,11.90
2022-12-26T12:22:32.742Z,12.49
2022-12-26T12:25:27.854Z,12.38
2022-12-26T12:28:12.145Z,11.63
2022-12-26T12:30:52.182Z,12.17
2022-12-26T12:33:32.495Z,12.35
2022-12-26T12:36:34.912Z,11.51
2022-12-26T12:39:11.567Z,11.88
2022-12-26T12:41:55.407Z,12.01
2022-12-26T12:44:45.020Z,12.30
2022-12-26T12:47:42.622Z,12.15
2022-12-26T12:50:40.951Z,11.15
2022-12-26T12:53:41.954Z,10.53
2022-12-26T12:56:30.891Z,10.57
2022-12-26T12:59:39.930Z,11.02
2022-12-26T13:02:20.724Z,10.86
2022-12-26T13:04:53.419Z,10.48
2022-12-26T13:07:27.183Z,10.79
2022-12-26T13:09:58.232Z,11.41
2022-12-26T13:12:35.095Z,11.38
2022-12-26T13:15:13.670Z,11.27
2022-12-26T13:17:48.265Z,11.37
2022-12-26T13:20:19.389Z,11.44
2022-12-26T13:23:23.585Z,11.47
2022-12-26T13:26:04.935Z,11.53
2022-12-26T13:28:34.561Z,12.04
2022-12-26T13:31:01.916Z,11.64
2022-12-26T13:33:30.022Z,11.63
2022-12-26T13:35:59.783Z,11.46
2022-12-26T13:38:56.224Z,11.19
2022-12-26T13:41:43.281Z,11.22
2022-12-26T13:44:20.056Z,11.37
2022-12-26T13:46:47.289Z,11.71
2022-12-26T13:49:27.233Z,11.43
2022-12-26T13:52:16.047Z,11.34
2022-12-26T13:54:54.193Z,11.66
2022-12-26T13:57:34.341Z,11.19
2022-12-26T14:00:06.361Z,11.31
2022-12-26T14:03:17.798Z,12.16
2022-12-26T14:06:13.213Z,12.01
2022-12-26T14:09:16.380Z,11.73
2022-12-26T14:11:55.805Z,11.83
2022-12-26T14:15:00.604Z,11.35
2022-12-26T14:17:40.085Z,11.05
2022-12-26T14:20:44.934Z,11.37
2022-12-26T14:23:31.232Z,11.15
2022-12-26T14:26:46.729Z,11.35
2022-12-26T14:29:58.659Z,11.40
2022-12-26T14:32:41.051Z,12.11
2022-12-26T14:35:14.706Z,11.85
2022-12-26T14:38:03.747Z,11.50
2022-12-26T14:40:36.243Z,11.60
2022-12-26T14:43:27.989Z,11.65
2022-12-26T14:45:57.552Z,11.47
2022-12-26T14:48:27.578Z,11.55
2022-12-26T14:51:04.038Z,11.43
2022-12-26T14:53:35.132Z,11.19
2022-12-26T14:56:10.408Z,11.97
2022-12-26T14:59:12.062Z,11.65
2022-12-26T15:01:39.647Z,10.95
2022-12-26T15:04:09.780Z,11.26
2022-12-26T15:06:55.790Z,10.63
2022-12-26T15:09:29.214Z,10.44
2022-12-26T15:12:24.448Z,11.42
2022-12-26T15:15:13.063Z,11.90
2022-12-26T15:18:06.549Z,11.23
2022-12-26T15:20:40.187Z,11.22
2022-12-26T15:23:42.735Z,11.40
2022-12-26T15:26:31.200Z,10.99
2022-12-26T15:29:04.472Z,10.85
2022-12-26T15:31:58.946Z,10.61
2022-12-26T15:34:38.421Z,11.15
2022-12-26T15:37:15.178Z,10.94
2022-12-26T15:40:19.708Z,10.68
2022-12-26T15:43:01.895Z,10.69
2022-12-26T15:45:39.957Z,10.99
2022-12-26T15:48:41.389Z,10.17
2022-12-26T15:51:15.014Z,10.13
2022-12-26T15:54:21.231Z,10.54
2022-12-26T15:57:08.568Z,11.19
2022-12-26T16:00:13.303Z,10.85
2022-12-26T16:02:47.845Z,11.53
2022-12-26T16:05:31.939Z,10.51
2022-12-26T16:08:17.974Z,10.27
2022-12-26T16:10:48.872Z,10.50
2022-12-26T16:13:23.198Z,10.69
2022-12-26T16:15:58.808Z,10.91
2022-12-26T16:18:30.981Z,11.21
2022-12-26T16:21:21.730Z,11.47
2022-12-26T16:23:51.346Z,11.05
2022-12-26T16:26:29.130Z,11.55
2022-12-26T16:28:58.557Z,11.37
2022-12-26T16:31:28.328Z,11.05
2022-12-26T16:33:57.876Z,10.61
2022-12-26T16:36:27.496Z,10.39
2022-12-26T16:38:55.917Z,10.49
2022-12-26T16:41:27.791Z,9.96
2022-12-26T16:43:57.190Z,10.14
2022-12-26T16:46:28.935Z,10.69
2022-12-26T16:48:58.716Z,10.44
2022-12-26T16:51:48.209Z,10.18
2022-12-26T16:54:19.795Z,10.13
2022-12-26T16:57:23.377Z,10.52
2022-12-26T16:59:57.732Z,11.11
2022-12-26T17:02:31.139Z,11.31
2022-12-26T17:05:18.580Z,11.07
2022-12-26T17:07:46.931Z,11.14
2022-12-26T17:10:20.039Z,10.87
2022-12-26T17:12:47.877Z,11.02
2022-12-26T17:15:24.319Z,11.17
2022-12-26T17:17:51.632Z,11.33
2022-12-26T17:20:21.798Z,11.92
2022-12-26T17:22:49.368Z,12.23
2022-12-26T17:25:21.136Z,12.04
2022-12-26T17:28:14.903Z,12.00
2022-12-26T17:30:44.691Z,11.66
2022-12-26T17:33:16.401Z,11.00
2022-12-26T17:38:39.201Z,11.48
2022-12-26T17:41:08.826Z,11.05
2022-12-26T17:43:37.585Z,11.14
2022-12-26T17:46:06.307Z,11.58
2022-12-26T17:48:34.923Z,11.80
2022-12-26T17:51:06.197Z,11.49
2022-12-26T17:53:35.162Z,11.51
2022-12-26T17:56:05.142Z,11.20
2022-12-26T17:58:33.280Z,11.40
2022-12-26T18:01:01.230Z,11.55
2022-12-26T18:03:28.663Z,11.80
2022-12-26T18:05:56.633Z,11.99
2022-12-26T18:08:31.565Z,11.76
2022-12-26T18:11:00.462Z,12.19
2022-12-26T18:13:28.169Z,12.12
2022-12-26T18:15:57.793Z,12.23
2022-12-26T18:18:39.764Z,11.87
2022-12-26T18:21:09.721Z,11.95
2022-12-26T18:23:37.788Z,11.66
2022-12-26T18:26:31.524Z,12.08
2022-12-26T18:28:59.212Z,12.08
2022-12-26T18:31:28.042Z,11.96
2022-12-26T18:33:55.950Z,12.21
2022-12-26T18:36:34.176Z,12.18
2022-12-26T18:39:02.031Z,12.02
2022-12-26T18:41:29.538Z,11.70
2022-12-26T18:43:58.211Z,11.32
2022-12-26T18:46:27.276Z,11.25
2022-12-26T18:48:56.724Z,11.23
2022-12-26T18:51:25.436Z,11.38
2022-12-26T18:53:52.765Z,11.46
2022-12-26T18:56:21.986Z,11.61
2022-12-26T18:58:57.133Z,11.81
2022-12-26T19:01:26.278Z,11.68
2022-12-26T19:03:54.047Z,11.99
2022-12-26T19:06:25.054Z,12.23
2022-12-26T19:08:52.669Z,12.00
2022-12-26T19:11:19.965Z,11.61
2022-12-26T19:13:47.419Z,11.74
2022-12-26T19:16:15.559Z,11.65
2022-12-26T19:18:42.979Z,12.12
2022-12-26T19:21:14.502Z,12.23
2022-12-26T19:23:42.777Z,12.30
2022-12-26T19:26:11.460Z,12.31
2022-12-26T19:28:39.365Z,11.91
2022-12-26T19:31:14.152Z,11.58
2022-12-26T19:33:41.835Z,11.97
2022-12-26T19:36:09.272Z,12.17
2022-12-26T19:38:37.250Z,12.16
2022-12-26T19:41:14.636Z,11.75
2022-12-26T19:43:43.034Z,11.63
2022-12-26T19:46:12.454Z,10.65
2022-12-26T19:48:39.846Z,11.02
2022-12-26T19:51:10.059Z,11.24
2022-12-26T19:53:40.263Z,11.61
2022-12-26T19:56:11.159Z,11.59
2022-12-26T19:58:38.596Z,11.73
2022-12-26T20:01:11.144Z,11.53
2022-12-26T20:03:39.892Z,11.63
2022-12-26T20:06:13.196Z,11.71
2022-12-26T20:08:41.064Z,11.80
2022-12-26T20:11:12.873Z,11.68
2022-12-26T20:13:42.063Z,11.64
2022-12-26T20:16:45.718Z,11.80
2022-12-26T20:19:02.709Z,11.93
2022-12-26T20:21:30.018Z,12.12
2022-12-26T20:24:01.280Z,11.63
2022-12-26T20:26:29.183Z,12.02
2022-12-26T20:28:58.459Z,11.59
2022-12-26T20:31:25.710Z,11.69
2022-12-26T20:33:53.422Z,12.13
2022-12-26T20:36:23.542Z,12.02
2022-12-26T20:38:55.825Z,11.90
2022-12-26T20:41:23.729Z,11.79
2022-12-26T20:43:52.028Z,11.77
2022-12-26T20:46:22.179Z,11.83
2022-12-26T20:48:52.185Z,11.65
2022-12-26T20:51:31.746Z,11.80
2022-12-26T20:54:04.550Z,12.15
2022-12-26T20:56:31.960Z,11.94
2022-12-26T20:58:59.751Z,12.17
2022-12-26T21:01:28.297Z,11.72
2022-12-26T21:03:56.701Z,11.94
2022-12-26T21:06:30.152Z,11.31
2022-12-26T21:08:57.875Z,11.78
2022-12-26T21:11:38.116Z,11.81
2022-12-26T21:14:08.544Z,11.49
2022-12-26T21:16:38.772Z,11.10
2022-12-26T21:19:12.312Z,10.89
2022-12-26T21:21:44.386Z,11.00
2022-12-26T21:24:23.890Z,11.85
2022-12-26T21:26:51.430Z,11.71
2022-12-26T21:29:23.250Z,11.91
2022-12-26T21:31:51.076Z,11.70
2022-12-26T21:34:20.135Z,12.02
2022-12-26T21:37:07.828Z,11.78
2022-12-26T21:39:36.289Z,11.53
2022-12-26T21:42:05.169Z,11.56
2022-12-26T21:44:32.891Z,11.35
2022-12-26T21:47:00.269Z,11.40
2022-12-26T21:49:27.922Z,11.42
2022-12-26T21:51:55.504Z,11.39
2022-12-26T21:54:48.369Z,11.25
2022-12-26T21:57:17.624Z,11.51
2022-12-26T21:59:57.742Z,11.31
2022-12-26T22:02:58.619Z,11.61
2022-12-26T22:05:28.263Z,11.64
2022-12-26T22:07:57.768Z,11.63
2022-12-26T22:10:44.901Z,11.78
2022-12-26T22:13:12.322Z,11.87
2022-12-26T22:16:02.808Z,11.85
2022-12-26T22:18:32.051Z,11.90
2022-12-26T22:21:04.517Z,11.84
2022-12-26T22:23:31.967Z,11.37
2022-12-26T22:25:59.425Z,11.89
2022-12-26T22:28:27.028Z,11.60
2022-12-26T22:30:54.473Z,11.41
2022-12-26T22:33:21.875Z,11.03
2022-12-26T22:35:49.141Z,11.27
2022-12-26T22:38:16.836Z,11.57
2022-12-26T22:40:58.085Z,11.40
2022-12-26T22:43:25.841Z,11.47
2022-12-26T22:45:53.432Z,11.77
2022-12-26T22:48:20.846Z,11.56
2022-12-26T22:50:51.083Z,11.96
2022-12-26T22:53:18.636Z,11.90
2022-12-26T22:55:48.566Z,11.42
2022-12-26T22:58:17.295Z,11.52
2022-12-26T23:00:45.207Z,11.81
2022-12-26T23:03:13.720Z,11.80
2022-12-26T23:05:41.619Z,11.39
2022-12-26T23:08:15.009Z,11.46
2022-12-26T23:10:42.808Z,11.19
2022-12-26T23:13:14.274Z,10.48
2022-12-26T23:15:51.250Z,11.24
2022-12-26T23:18:49.795Z,11.02
2022-12-26T23:21:44.952Z,11.52
2022-12-26T23:24:26.204Z,11.15
2022-12-26T23:26:56.193Z,11.52
2022-12-26T23:29:43.244Z,10.79
2022-12-26T23:32:10.876Z,10.23
2022-12-26T23:34:38.239Z,10.67
2022-12-26T23:37:05.584Z,11.20
2022-12-26T23:39:32.859Z,11.28
2022-12-26T23:42:00.115Z,10.71
2022-12-26T23:44:27.443Z,10.75
2022-12-26T23:46:54.785Z,10.86
2022-12-26T23:49:22.188Z,10.15
2022-12-26T23:51:49.400Z,11.11
2022-12-26T23:54:16.725Z,11.14
2022-12-26T23:56:44.038Z,10.57
2022-12-26T23:59:11.255Z,10.55
